Time;durP1;ratioP1;P1;durP2;ratioP2;P2;SDS_P1;SDS_P2;PMS_P1;PMS_P2;Temp;Humidity;BMP_temperature;BMP_pressure;BME280_temperature;BME280_humidity;BME280_pressure;Samples;Min_cycle;Max_cycle;Signal;HPM_P1;HPM_P2
2021/09/17 00:00:10;;;;;;;9.73;6.10;;;19.20;93.30;;;;;;5090959;28;20031;-83
2021/09/17 00:02:36;;;;;;;10.07;7.05;;;19.10;93.30;;;;;;5090933;28;20039;-82
2021/09/17 00:05:04;;;;;;;17.80;7.45;;;19.10;93.40;;;;;;5090567;28;20024;-83
2021/09/17 00:07:29;;;;;;;11.23;6.38;;;19.10;93.60;;;;;;5091331;28;20039;-82
2021/09/17 00:09:55;;;;;;;10.02;6.25;;;19.00;93.80;;;;;;5090778;28;20024;-83
2021/09/17 00:12:21;;;;;;;10.27;6.03;;;18.90;94.00;;;;;;5092257;28;20036;-82
2021/09/17 00:14:46;;;;;;;7.68;5.72;;;18.90;94.30;;;;;;5091065;28;20118;-83
2021/09/17 00:17:12;;;;;;;8.43;5.35;;;18.90;94.40;;;;;;5090760;28;20077;-83
2021/09/17 00:19:38;;;;;;;12.38;7.05;;;18.90;94.60;;;;;;5090353;28;20024;-83
2021/09/17 00:22:04;;;;;;;13.27;7.15;;;19.00;94.90;;;;;;5092102;28;20036;-83
2021/09/17 00:24:30;;;;;;;11.20;6.75;;;19.10;94.20;;;;;;5092192;28;20035;-83
2021/09/17 00:26:55;;;;;;;8.15;5.95;;;19.10;94.00;;;;;;5092122;28;20103;-83
2021/09/17 00:29:21;;;;;;;12.02;6.10;;;19.00;94.20;;;;;;5090167;28;20477;-81
2021/09/17 00:31:47;;;;;;;14.32;5.80;;;19.00;94.30;;;;;;5090259;28;20040;-83
2021/09/17 00:34:12;;;;;;;9.77;4.85;;;19.00;94.50;;;;;;5091741;28;20049;-84
2021/09/17 00:36:38;;;;;;;7.38;4.72;;;19.00;94.60;;;;;;5091620;28;20451;-83
2021/09/17 00:39:04;;;;;;;12.30;5.10;;;19.00;94.70;;;;;;5091338;28;20360;-83
2021/09/17 00:41:30;;;;;;;11.55;4.60;;;19.10;95.00;;;;;;5091685;28;20036;-82
2021/09/17 00:43:56;;;;;;;7.13;4.15;;;19.10;94.80;;;;;;5090106;28;20055;-82
2021/09/17 00:46:21;;;;;;;13.02;5.72;;;19.20;94.70;;;;;;5090202;28;20059;-83
2021/09/17 00:48:47;;;;;;;7.88;4.43;;;19.30;94.40;;;;;;5089959;28;20071;-81
2021/09/17 00:51:13;;;;;;;8.07;4.00;;;19.40;94.30;;;;;;5091169;28;20024;-82
2021/09/17 00:53:39;;;;;;;6.80;3.55;;;19.50;94.10;;;;;;5090101;28;20114;-81
2021/09/17 00:56:04;;;;;;;5.30;3.60;;;19.50;94.00;;;;;;5089801;28;20021;-83
2021/09/17 00:58:30;;;;;;;5.43;3.53;;;19.50;93.90;;;;;;5091293;28;20035;-83
2021/09/17 01:00:56;;;;;;;4.95;3.28;;;19.60;93.80;;;;;;5091148;28;20511;-84
2021/09/17 01:03:23;;;;;;;6.93;3.90;;;19.60;93.80;;;;;;5089909;28;20050;-83
2021/09/17 01:05:48;;;;;;;10.50;3.45;;;19.70;93.80;;;;;;5090429;28;20059;-83
2021/09/17 01:08:14;;;;;;;5.80;3.33;;;19.70;93.90;;;;;;5090568;28;20054;-83
2021/09/17 01:10:42;;;;;;;3.60;3.00;;;19.70;93.80;;;;;;5089520;28;20354;-83
2021/09/17 01:13:08;;;;;;;4.25;3.03;;;19.70;93.80;;;;;;5089561;28;20044;-83
2021/09/17 01:15:34;;;;;;;4.60;3.10;;;19.80;94.10;;;;;;5090115;28;20043;-82
2021/09/17 01:18:00;;;;;;;6.55;3.55;;;19.80;93.80;;;;;;5089786;28;20020;-83
2021/09/17 01:20:25;;;;;;;9.02;3.60;;;19.80;93.80;;;;;;5089809;28;20039;-83
2021/09/17 01:22:52;;;;;;;6.00;3.80;;;19.80;94.00;;;;;;5090813;28;20028;-82
2021/09/17 01:25:20;;;;;;;4.85;3.30;;;19.80;94.00;;;;;;5090192;28;20024;-83
2021/09/17 01:27:48;;;;;;;8.55;3.25;;;19.80;94.00;;;;;;5090752;28;20047;-83
2021/09/17 01:30:17;;;;;;;7.07;2.83;;;19.90;93.80;;;;;;5090054;28;20101;-82
2021/09/17 01:32:43;;;;;;;6.00;3.38;;;20.00;93.80;;;;;;5090491;28;20032;-82
2021/09/17 01:35:15;;;;;;;11.38;3.30;;;20.00;93.70;;;;;;5090620;28;20369;-83
2021/09/17 01:37:41;;;;;;;4.07;2.65;;;20.00;93.50;;;;;;5090031;28;20028;-83
2021/09/17 01:40:08;;;;;;;10.38;3.13;;;20.10;93.30;;;;;;5089232;28;20027;-83
2021/09/17 01:42:34;;;;;;;6.68;2.90;;;20.20;93.20;;;;;;5088838;28;20027;-82
2021/09/17 01:45:00;;;;;;;4.38;2.63;;;20.20;93.10;;;;;;5088703;28;20582;-83
2021/09/17 01:47:26;;;;;;;3.00;2.30;;;20.20;93.00;;;;;;5088741;28;20744;-83
2021/09/17 01:49:51;;;;;;;4.55;2.95;;;20.30;93.00;;;;;;5090711;28;20060;-84
2021/09/17 01:52:17;;;;;;;6.20;2.88;;;20.30;93.10;;;;;;5088183;28;20048;-83
2021/09/17 01:54:44;;;;;;;9.35;3.22;;;20.20;93.20;;;;;;5089941;28;20028;-83
2021/09/17 01:57:10;;;;;;;5.45;3.90;;;20.20;93.20;;;;;;5089671;28;20032;-83
2021/09/17 01:59:36;;;;;;;15.88;6.68;;;20.20;93.20;;;;;;5089464;28;20027;-83
2021/09/17 02:02:01;;;;;;;11.50;8.15;;;20.20;92.90;;;;;;5089021;28;20408;-83
2021/09/17 02:04:27;;;;;;;12.32;7.75;;;20.20;92.60;;;;;;5088321;28;20497;-83
2021/09/17 02:06:53;;;;;;;25.23;10.68;;;20.10;92.80;;;;;;5088033;28;20020;-82
2021/09/17 02:09:18;;;;;;;21.15;10.90;;;20.10;92.20;;;;;;5088403;28;20028;-83
2021/09/17 02:11:44;;;;;;;19.33;10.38;;;20.00;92.00;;;;;;5088800;28;20519;-83
2021/09/17 02:14:09;;;;;;;13.38;9.40;;;20.00;91.90;;;;;;5088613;28;20073;-81
2021/09/17 02:16:35;;;;;;;15.55;9.07;;;19.90;91.90;;;;;;5088917;28;20059;-83
2021/09/17 02:19:01;;;;;;;15.02;8.82;;;19.80;91.90;;;;;;5091357;28;20111;-83
2021/09/17 02:21:27;;;;;;;14.85;9.00;;;19.80;92.20;;;;;;5089071;28;20035;-82
2021/09/17 02:23:52;;;;;;;16.75;9.50;;;19.80;92.40;;;;;;5088041;28;20065;-83
2021/09/17 02:26:18;;;;;;;13.00;8.30;;;19.70;92.60;;;;;;5085819;28;20522;-82
2021/09/17 02:28:44;;;;;;;14.10;9.02;;;19.60;93.30;;;;;;5087547;28;20024;-84
2021/09/17 02:31:10;;;;;;;11.45;8.93;;;19.60;94.40;;;;;;5089085;28;20024;-83
2021/09/17 02:33:36;;;;;;;17.13;10.35;;;19.50;95.60;;;;;;5088214;28;20193;-83
2021/09/17 02:36:03;;;;;;;16.20;9.77;;;19.30;96.40;;;;;;5089992;28;20534;-82
2021/09/17 02:38:29;;;;;;;19.33;9.43;;;19.20;97.70;;;;;;5088677;28;20141;-84
2021/09/17 02:40:55;;;;;;;14.05;10.45;;;19.10;98.20;;;;;;5090257;28;20103;-84
2021/09/17 02:43:20;;;;;;;20.23;11.40;;;19.00;99.10;;;;;;5088399;28;20047;-83
2021/09/17 02:45:46;;;;;;;25.13;12.90;;;18.90;99.90;;;;;;5089450;28;20450;-82
2021/09/17 02:48:12;;;;;;;17.63;11.63;;;18.80;99.90;;;;;;5088050;28;20140;-81
2021/09/17 02:50:38;;;;;;;22.27;12.63;;;18.70;99.90;;;;;;5088585;28;20489;-83
2021/09/17 02:53:05;;;;;;;18.42;12.13;;;18.60;99.90;;;;;;5089066;28;20428;-82
2021/09/17 02:55:31;;;;;;;27.10;13.45;;;18.50;99.90;;;;;;5089882;28;20030;-83
2021/09/17 02:57:56;;;;;;;19.23;12.85;;;18.30;99.90;;;;;;5088838;28;20035;-83
2021/09/17 03:00:22;;;;;;;19.40;12.45;;;18.10;99.90;;;;;;5089860;28;20104;-84
2021/09/17 03:02:48;;;;;;;22.65;13.25;;;18.10;99.90;;;;;;5090110;28;20652;-83
2021/09/17 03:05:13;;;;;;;21.73;14.35;;;18.00;99.90;;;;;;5088171;28;20103;-82
2021/09/17 03:07:39;;;;;;;18.45;14.18;;;17.80;99.90;;;;;;5089166;28;20032;-83
2021/09/17 03:10:06;;;;;;;18.13;13.88;;;17.70;99.90;;;;;;5087921;28;20131;-83
2021/09/17 03:12:32;;;;;;;16.73;13.43;;;17.70;99.90;;;;;;5090917;28;20028;-82
2021/09/17 03:14:58;;;;;;;25.33;13.77;;;17.70;99.90;;;;;;5091644;28;20101;-82
2021/09/17 03:17:23;;;;;;;27.70;14.40;;;17.60;99.90;;;;;;5093423;28;20052;-82
2021/09/17 03:19:49;;;;;;;20.85;13.38;;;17.70;99.90;;;;;;5092710;28;20032;-84
2021/09/17 03:22:14;;;;;;;19.88;12.55;;;17.70;99.90;;;;;;5091795;28;20055;-82
2021/09/17 03:24:40;;;;;;;19.75;12.60;;;17.80;99.90;;;;;;5091423;28;20032;-82
2021/09/17 03:27:06;;;;;;;21.05;12.85;;;17.80;99.90;;;;;;5091654;28;20028;-82
2021/09/17 03:29:32;;;;;;;26.40;13.70;;;17.90;99.90;;;;;;5091008;28;20481;-82
2021/09/17 03:31:57;;;;;;;20.33;12.25;;;17.90;99.90;;;;;;5092570;28;20058;-83
2021/09/17 03:34:23;;;;;;;22.10;13.00;;;17.90;99.90;;;;;;5090887;28;20488;-81
2021/09/17 03:36:48;;;;;;;15.70;12.52;;;17.90;99.90;;;;;;5091426;28;20028;-83
2021/09/17 03:39:15;;;;;;;27.75;12.25;;;17.90;99.90;;;;;;5091681;28;20057;-83
2021/09/17 03:41:45;;;;;;;22.73;13.70;;;17.90;99.90;;;;;;5091057;28;20513;-81
2021/09/17 03:44:14;;;;;;;20.98;13.60;;;17.90;99.90;;;;;;5090948;28;20024;-83
2021/09/17 03:46:41;;;;;;;27.33;15.00;;;17.90;99.90;;;;;;5089863;28;20056;-84
2021/09/17 03:49:07;;;;;;;23.35;13.32;;;18.00;99.90;;;;;;5089756;28;20088;-82
2021/09/17 03:51:33;;;;;;;21.13;12.52;;;18.00;99.90;;;;;;5090889;28;20031;-85
2021/09/17 03:53:59;;;;;;;24.30;13.55;;;18.10;99.90;;;;;;5089832;28;20024;-82
2021/09/17 03:56:25;;;;;;;20.00;11.55;;;18.10;99.90;;;;;;5089902;28;20093;-83
2021/09/17 03:58:50;;;;;;;16.75;12.10;;;18.10;99.90;;;;;;5089134;28;20036;-84
2021/09/17 04:01:16;;;;;;;15.18;11.50;;;18.10;99.90;;;;;;5090674;28;20020;-84
2021/09/17 04:03:42;;;;;;;13.70;10.70;;;18.10;99.90;;;;;;5091877;28;20560;-82
2021/09/17 04:06:07;;;;;;;13.85;10.23;;;18.10;99.90;;;;;;5090339;28;20048;-84
2021/09/17 04:08:34;;;;;;;16.80;11.40;;;18.20;99.90;;;;;;5089535;28;20024;-81
2021/09/17 04:11:00;;;;;;;19.98;12.73;;;18.20;99.90;;;;;;5089830;28;20428;-81
2021/09/17 04:13:25;;;;;;;18.90;12.18;;;18.30;99.90;;;;;;5089549;28;20031;-82
2021/09/17 04:15:51;;;;;;;17.42;11.55;;;18.30;99.90;;;;;;5089906;28;20107;-81
2021/09/17 04:18:16;;;;;;;15.35;10.10;;;18.30;99.90;;;;;;5088569;28;20135;-81
2021/09/17 04:20:42;;;;;;;19.52;12.07;;;18.30;99.90;;;;;;5089154;28;20063;-82
2021/09/17 04:23:08;;;;;;;20.75;11.07;;;18.30;99.90;;;;;;5087643;28;20020;-83
2021/09/17 04:25:34;;;;;;;16.73;11.48;;;18.30;99.90;;;;;;5087976;28;20057;-84
2021/09/17 04:27:59;;;;;;;19.27;12.77;;;18.40;99.90;;;;;;5090478;28;20022;-83
2021/09/17 04:30:25;;;;;;;16.88;11.30;;;18.40;99.90;;;;;;5089144;28;20434;-83
2021/09/17 04:32:51;;;;;;;15.93;12.13;;;18.40;99.90;;;;;;5090785;28;20043;-84
2021/09/17 04:35:17;;;;;;;14.80;11.27;;;18.40;99.90;;;;;;5089489;28;20060;-83
2021/09/17 04:37:45;;;;;;;16.48;10.90;;;18.40;99.90;;;;;;5087177;28;20531;-84
2021/09/17 04:40:13;;;;;;;14.73;10.45;;;18.40;99.90;;;;;;5088386;28;20028;-83
2021/09/17 04:42:39;;;;;;;14.40;10.15;;;18.50;99.90;;;;;;5089237;28;20111;-82
2021/09/17 04:45:06;;;;;;;15.25;10.20;;;18.50;99.90;;;;;;5088552;28;20119;-81
2021/09/17 04:47:32;;;;;;;20.00;12.32;;;18.60;99.90;;;;;;5089773;28;20028;-83
2021/09/17 04:49:59;;;;;;;15.80;11.25;;;18.60;99.90;;;;;;5090513;28;20173;-83
2021/09/17 04:52:25;;;;;;;16.60;11.27;;;18.70;99.90;;;;;;5090310;28;20512;-83
2021/09/17 04:54:51;;;;;;;19.50;13.02;;;18.70;99.90;;;;;;5089243;28;20028;-82
2021/09/17 04:57:17;;;;;;;15.80;11.95;;;18.80;99.90;;;;;;5088851;28;20515;-83
2021/09/17 04:59:43;;;;;;;23.08;14.52;;;18.80;99.90;;;;;;5089527;28;20028;-82
2021/09/17 05:02:09;;;;;;;21.73;13.68;;;18.80;99.90;;;;;;5087835;28;20027;-81
2021/09/17 05:04:34;;;;;;;24.55;14.48;;;18.80;99.90;;;;;;5088118;28;20541;-82
2021/09/17 05:07:00;;;;;;;22.95;14.05;;;18.90;99.90;;;;;;5089279;28;20031;-82
2021/09/17 05:09:26;;;;;;;19.27;13.65;;;18.90;99.90;;;;;;5089615;28;20028;-82
2021/09/17 05:11:52;;;;;;;24.63;14.43;;;19.00;99.90;;;;;;5089107;28;20059;-84
2021/09/17 05:14:18;;;;;;;25.50;14.60;;;19.00;99.90;;;;;;5089771;28;20028;-83
2021/09/17 05:16:46;;;;;;;22.52;12.88;;;19.00;99.90;;;;;;5089882;28;20082;-83
2021/09/17 05:19:12;;;;;;;23.25;12.20;;;19.00;99.90;;;;;;5089720;28;20085;-83
2021/09/17 05:21:38;;;;;;;26.02;14.50;;;19.00;99.90;;;;;;5089402;28;20020;-83
2021/09/17 05:24:04;;;;;;;26.65;16.75;;;19.10;99.90;;;;;;5089741;28;20027;-83
2021/09/17 05:26:30;;;;;;;32.05;16.80;;;19.10;99.90;;;;;;5089043;28;20070;-83
2021/09/17 05:28:55;;;;;;;30.02;15.07;;;19.10;99.90;;;;;;5088858;28;20036;-84
2021/09/17 05:31:21;;;;;;;29.15;14.82;;;19.10;99.90;;;;;;5088342;28;20035;-83
2021/09/17 05:33:47;;;;;;;19.80;13.35;;;19.10;99.90;;;;;;5087380;28;20032;-83
2021/09/17 05:36:13;;;;;;;20.50;13.73;;;19.10;99.90;;;;;;5087143;28;20024;-83
2021/09/17 05:38:39;;;;;;;31.40;14.35;;;19.20;99.90;;;;;;5088658;28;20085;-83
2021/09/17 05:41:05;;;;;;;31.05;15.48;;;19.30;99.90;;;;;;5089044;28;20492;-84
2021/09/17 05:43:31;;;;;;;19.92;15.00;;;19.40;99.90;;;;;;5088163;28;20490;-84
2021/09/17 05:45:56;;;;;;;23.38;13.57;;;19.50;99.90;;;;;;5087774;28;20488;-83
2021/09/17 05:48:23;;;;;;;24.08;15.07;;;19.40;99.90;;;;;;5086763;28;20376;-84
2021/09/17 05:50:50;;;;;;;25.67;16.38;;;19.50;99.90;;;;;;5087990;28;20512;-83
2021/09/17 05:53:17;;;;;;;29.90;16.17;;;19.50;99.90;;;;;;5088729;28;20040;-82
2021/09/17 05:55:43;;;;;;;25.23;15.65;;;19.50;99.90;;;;;;5087823;28;20052;-83
2021/09/17 05:58:08;;;;;;;23.92;15.85;;;19.50;99.90;;;;;;5087821;28;20066;-84
2021/09/17 06:00:35;;;;;;;22.42;15.82;;;19.50;99.90;;;;;;5088539;28;20024;-84
2021/09/17 06:03:02;;;;;;;23.50;15.55;;;19.60;99.90;;;;;;5088917;28;20065;-84
2021/09/17 06:05:27;;;;;;;27.33;13.18;;;19.60;99.90;;;;;;5087435;28;20028;-83
2021/09/17 06:07:53;;;;;;;21.27;13.98;;;19.60;99.90;;;;;;5088894;28;20435;-84
2021/09/17 06:10:19;;;;;;;28.48;14.02;;;19.60;99.90;;;;;;5088883;28;20056;-83
2021/09/17 06:12:45;;;;;;;18.35;13.70;;;19.60;99.90;;;;;;5087630;28;20070;-81
2021/09/17 06:15:16;;;;;;;25.58;15.98;;;19.50;99.90;;;;;;5087108;28;20048;-84
2021/09/17 06:17:43;;;;;;;37.20;18.50;;;19.50;99.90;;;;;;5089207;28;20035;-83
2021/09/17 06:20:10;;;;;;;32.88;17.65;;;19.40;99.90;;;;;;5089345;28;20475;-83
2021/09/17 06:22:35;;;;;;;25.85;17.90;;;19.30;99.90;;;;;;5071638;28;20478;-83
2021/09/17 06:25:01;;;;;;;24.83;16.48;;;19.30;99.90;;;;;;5088243;28;20103;-82
2021/09/17 06:27:27;;;;;;;33.28;19.42;;;19.30;99.90;;;;;;5088703;28;20062;-83
2021/09/17 06:29:53;;;;;;;24.33;17.33;;;19.30;99.90;;;;;;5089693;28;20052;-83
2021/09/17 06:32:18;;;;;;;25.88;16.05;;;19.20;99.90;;;;;;5087629;28;20028;-83
2021/09/17 06:34:44;;;;;;;21.90;15.15;;;19.20;99.90;;;;;;5087229;28;20036;-84
2021/09/17 06:37:09;;;;;;;23.23;15.15;;;19.10;99.90;;;;;;5089234;28;20026;-84
2021/09/17 06:39:35;;;;;;;24.60;17.15;;;19.10;99.90;;;;;;5088988;28;20127;-84
2021/09/17 06:42:01;;;;;;;25.60;16.58;;;19.10;99.90;;;;;;5088493;28;20039;-83
2021/09/17 06:44:27;;;;;;;20.80;16.63;;;19.00;99.90;;;;;;5087614;28;20032;-83
2021/09/17 06:46:53;;;;;;;26.20;17.67;;;19.00;99.90;;;;;;5087951;28;20028;-82
2021/09/17 06:49:19;;;;;;;29.30;20.45;;;19.00;99.90;;;;;;5089046;28;20088;-82
2021/09/17 06:51:44;;;;;;;25.27;18.80;;;18.90;99.90;;;;;;5088731;28;20051;-84
2021/09/17 06:54:10;;;;;;;25.75;17.75;;;18.90;99.90;;;;;;5088865;28;20108;-83
2021/09/17 06:56:36;;;;;;;24.70;19.42;;;18.90;99.90;;;;;;5088623;28;20495;-83
2021/09/17 06:59:02;;;;;;;32.53;21.17;;;18.80;99.90;;;;;;5087708;28;20024;-83
2021/09/17 07:01:27;;;;;;;34.35;20.90;;;18.70;99.90;;;;;;5087971;28;20039;-82
2021/09/17 07:03:53;;;;;;;29.20;22.55;;;18.70;99.90;;;;;;5087832;28;20047;-85
2021/09/17 07:06:19;;;;;;;31.45;22.80;;;18.70;99.90;;;;;;5087068;28;20024;-84
2021/09/17 07:08:44;;;;;;;39.28;23.83;;;18.80;99.90;;;;;;5088333;28;20480;-83
2021/09/17 07:11:10;;;;;;;33.13;22.40;;;18.80;99.90;;;;;;5088428;28;20116;-84
2021/09/17 07:13:35;;;;;;;40.55;25.98;;;18.80;99.90;;;;;;5088509;28;20492;-84
2021/09/17 07:16:01;;;;;;;31.77;21.65;;;18.90;99.90;;;;;;5088436;28;20399;-82
2021/09/17 07:18:27;;;;;;;27.77;22.35;;;19.10;99.90;;;;;;5086691;28;20028;-82
2021/09/17 07:20:54;;;;;;;25.85;20.10;;;19.40;99.90;;;;;;5086904;28;20020;-82
2021/09/17 07:23:20;;;;;;;19.33;14.90;;;19.90;99.90;;;;;;5087440;28;20028;-83
2021/09/17 07:25:46;;;;;;;19.42;14.38;;;20.30;99.90;;;;;;5086064;28;20024;-83
2021/09/17 07:28:11;;;;;;;13.00;10.27;;;20.40;99.90;;;;;;5085310;28;20077;-82
2021/09/17 07:30:37;;;;;;;9.15;7.43;;;20.40;99.90;;;;;;5085517;28;20028;-83
2021/09/17 07:33:03;;;;;;;6.38;5.78;;;20.40;99.90;;;;;;5086678;28;20034;-82
2021/09/17 07:35:29;;;;;;;5.20;4.55;;;20.40;99.90;;;;;;5085075;28;20438;-83
2021/09/17 07:37:54;;;;;;;6.10;3.85;;;20.40;99.90;;;;;;5086742;28;20023;-81
2021/09/17 07:40:20;;;;;;;9.90;2.67;;;20.40;99.90;;;;;;5086861;28;20082;-82
2021/09/17 07:42:47;;;;;;;3.72;3.05;;;20.40;99.90;;;;;;5086272;28;20028;-82
2021/09/17 07:45:15;;;;;;;4.60;2.47;;;20.70;99.90;;;;;;5086155;28;20016;-82
2021/09/17 07:47:41;;;;;;;2.53;1.90;;;21.10;99.90;;;;;;5085343;28;20024;-83
2021/09/17 07:50:08;;;;;;;2.85;2.08;;;21.40;99.90;;;;;;5084842;28;20094;-81
2021/09/17 07:52:34;;;;;;;3.00;2.00;;;21.70;99.90;;;;;;5086830;28;20075;-82
2021/09/17 07:55:00;;;;;;;3.45;0.95;;;22.00;99.90;;;;;;5086452;28;20426;-82
2021/09/17 07:57:25;;;;;;;1.50;0.98;;;22.80;99.90;;;;;;5084106;28;20717;-82
2021/09/17 07:59:51;;;;;;;1.88;0.85;;;24.00;99.90;;;;;;5088459;28;20697;-82
2021/09/17 08:02:17;;;;;;;0.95;0.40;;;25.20;99.00;;;;;;5088258;28;20063;-81
2021/09/17 08:04:42;;;;;;;0.50;0.50;;;26.40;94.40;;;;;;5089382;28;20137;-82
2021/09/17 08:07:09;;;;;;;2.92;0.90;;;26.70;91.90;;;;;;5089683;28;20538;-82
2021/09/17 08:09:35;;;;;;;1.05;0.40;;;26.70;90.80;;;;;;5089570;28;20446;-82
2021/09/17 08:12:02;;;;;;;2.15;0.45;;;27.10;88.80;;;;;;5088749;28;20044;-82
2021/09/17 08:14:28;;;;;;;3.33;0.55;;;27.70;86.40;;;;;;5089509;28;20057;-80
2021/09/17 08:16:54;;;;;;;1.90;0.57;;;28.10;85.60;;;;;;5088781;28;20028;-81
2021/09/17 08:19:19;;;;;;;1.63;0.50;;;28.60;80.50;;;;;;5089102;28;20074;-81
2021/09/17 08:21:45;;;;;;;2.60;0.80;;;28.50;78.10;;;;;;5089192;28;20028;-80
2021/09/17 08:24:15;;;;;;;2.58;0.63;;;28.90;79.00;;;;;;5087975;28;20051;-81
2021/09/17 08:26:47;;;;;;;5.22;0.50;;;28.80;78.80;;;;;;5087520;28;20097;-80
2021/09/17 08:29:12;;;;;;;2.28;0.40;;;28.50;79.00;;;;;;5087718;28;20048;-81
2021/09/17 08:31:39;;;;;;;0.65;0.40;;;28.00;79.20;;;;;;5088835;28;20081;-82
2021/09/17 08:34:06;;;;;;;2.50;0.47;;;27.50;80.80;;;;;;5089303;28;20020;-81
2021/09/17 08:36:32;;;;;;;1.05;0.35;;;27.20;81.80;;;;;;5089101;28;20368;-83
2021/09/17 08:38:58;;;;;;;0.73;0.40;;;27.10;82.50;;;;;;5087373;28;20035;-81
2021/09/17 08:41:25;;;;;;;0.77;0.45;;;27.10;81.20;;;;;;5089228;28;20032;-83
2021/09/17 08:43:51;;;;;;;0.70;0.50;;;27.00;82.00;;;;;;5089332;28;20032;-82
2021/09/17 08:46:17;;;;;;;1.42;0.40;;;27.00;80.80;;;;;;5088505;28;20045;-83
2021/09/17 08:48:43;;;;;;;1.25;0.50;;;27.30;79.90;;;;;;5088915;28;20031;-82
2021/09/17 08:51:09;;;;;;;1.00;0.47;;;27.40;80.20;;;;;;5087318;28;20118;-83
2021/09/17 08:53:35;;;;;;;1.30;0.52;;;27.90;78.70;;;;;;5088716;28;20072;-82
2021/09/17 08:56:06;;;;;;;1.65;0.40;;;28.20;77.60;;;;;;5088226;28;20112;-83
2021/09/17 08:58:32;;;;;;;4.30;0.57;;;28.30;75.00;;;;;;5087042;28;20028;-82
2021/09/17 09:00:57;;;;;;;1.15;0.50;;;27.80;76.30;;;;;;5087619;28;20402;-83
2021/09/17 09:03:34;;;;;;;0.90;0.60;;;27.70;76.50;;;;;;5087073;28;20450;-82
2021/09/17 09:06:12;;;;;;;0.60;0.50;;;27.70;76.00;;;;;;5086833;28;20066;-82
2021/09/17 09:08:40;;;;;;;1.58;0.40;;;27.40;77.00;;;;;;5088638;28;20032;-81
2021/09/17 09:11:16;;;;;;;0.60;0.40;;;27.30;76.90;;;;;;5087194;28;20036;-82
2021/09/17 09:14:05;;;;;;;1.80;0.50;;;27.10;77.90;;;;;;5087174;28;20043;-81
2021/09/17 09:16:33;;;;;;;3.85;0.47;;;27.40;78.40;;;;;;5088772;28;20017;-83
2021/09/17 09:19:16;;;;;;;0.98;0.50;;;28.10;75.60;;;;;;5088475;28;20468;-83
2021/09/17 09:21:41;;;;;;;2.33;0.93;;;28.90;71.30;;;;;;5088068;28;20134;-80
2021/09/17 09:24:10;;;;;;;1.17;0.40;;;29.30;69.50;;;;;;5088326;28;20114;-81
2021/09/17 09:26:36;;;;;;;1.35;0.50;;;29.20;68.70;;;;;;5087662;28;20020;-80
2021/09/17 09:29:02;;;;;;;3.85;0.45;;;28.90;69.40;;;;;;5087244;28;20032;-81
2021/09/17 09:31:40;;;;;;;1.10;0.40;;;28.90;68.50;;;;;;5086612;28;20385;-81
2021/09/17 09:34:06;;;;;;;0.30;0.30;;;28.70;68.80;;;;;;5086998;28;20063;-81
2021/09/17 09:36:35;;;;;;;1.17;0.40;;;28.30;68.70;;;;;;5087869;28;20056;-83
2021/09/17 09:39:02;;;;;;;0.38;0.28;;;27.80;70.10;;;;;;5088231;28;20107;-84
2021/09/17 09:41:34;;;;;;;0.90;0.40;;;27.40;72.60;;;;;;5087673;28;20024;-83
2021/09/17 09:44:16;;;;;;;0.40;0.38;;;27.20;73.20;;;;;;5087647;28;20020;-80
2021/09/17 09:46:45;;;;;;;3.00;0.40;;;27.20;72.90;;;;;;5088338;28;20400;-83
2021/09/17 09:49:27;;;;;;;0.75;0.40;;;26.70;74.50;;;;;;5085932;28;20016;-82
2021/09/17 09:52:06;;;;;;;1.55;0.32;;;26.50;76.40;;;;;;5087864;28;20028;-82
2021/09/17 09:54:34;;;;;;;0.70;0.30;;;27.00;76.50;;;;;;5087517;28;20028;-81
2021/09/17 09:57:01;;;;;;;0.82;0.45;;;27.30;75.90;;;;;;5087591;28;20016;-82
2021/09/17 09:59:30;;;;;;;1.77;0.50;;;27.10;75.50;;;;;;5085326;28;20032;-83
2021/09/17 10:01:58;;;;;;;0.68;0.40;;;27.00;76.10;;;;;;5087160;28;20035;-82
2021/09/17 10:04:25;;;;;;;1.63;0.40;;;26.90;76.60;;;;;;5086331;28;20071;-81
2021/09/17 10:07:03;;;;;;;0.93;0.52;;;26.90;77.20;;;;;;5085070;28;20546;-82
2021/09/17 10:09:28;;;;;;;1.67;0.40;;;26.80;75.90;;;;;;5085546;28;20024;-83
2021/09/17 10:11:58;;;;;;;0.50;0.40;;;26.50;76.30;;;;;;5085506;28;20067;-81
2021/09/17 10:14:25;;;;;;;2.58;0.50;;;26.20;76.70;;;;;;5086327;28;20549;-81
2021/09/17 10:16:51;;;;;;;2.47;0.50;;;26.00;78.60;;;;;;5085923;28;20036;-82
2021/09/17 10:19:20;;;;;;;1.42;0.40;;;26.00;80.00;;;;;;5087225;28;20103;-81
2021/09/17 10:21:59;;;;;;;0.50;0.40;;;25.80;79.10;;;;;;5087303;28;20078;-82
2021/09/17 10:24:27;;;;;;;1.08;0.40;;;25.70;80.50;;;;;;5085946;28;20112;-82
2021/09/17 10:26:57;;;;;;;4.55;0.65;;;25.60;81.00;;;;;;5085864;28;20073;-82
2021/09/17 10:29:34;;;;;;;4.00;0.68;;;25.50;81.90;;;;;;5087545;28;20774;-83
2021/09/17 10:32:01;;;;;;;1.23;0.60;;;25.60;84.10;;;;;;5087189;28;20078;-83
2021/09/17 10:34:41;;;;;;;2.90;0.90;;;25.60;84.60;;;;;;5087166;28;20058;-81
2021/09/17 10:37:09;;;;;;;1.65;0.65;;;25.70;85.90;;;;;;5086574;28;20222;-81
2021/09/17 10:39:35;;;;;;;5.40;2.13;;;25.40;87.60;;;;;;5086548;28;20427;-82
2021/09/17 10:42:18;;;;;;;1.02;0.70;;;25.10;89.00;;;;;;5086790;28;20032;-83
2021/09/17 10:45:01;;;;;;;1.58;0.63;;;24.80;90.30;;;;;;5086936;28;20028;-82
2021/09/17 10:47:39;;;;;;;3.13;0.88;;;24.70;91.20;;;;;;5085415;28;20027;-82
2021/09/17 10:50:10;;;;;;;2.85;1.10;;;24.40;91.50;;;;;;5088201;28;20023;-84
2021/09/17 10:52:43;;;;;;;4.43;1.00;;;24.20;91.80;;;;;;5086942;28;20028;-80
2021/09/17 10:55:29;;;;;;;2.75;1.00;;;23.90;92.70;;;;;;5086494;28;20480;-82
2021/09/17 10:58:27;;;;;;;2.60;0.85;;;23.80;93.30;;;;;;5085192;28;20114;-81
2021/09/17 11:00:53;;;;;;;1.83;0.88;;;23.40;94.60;;;;;;5080036;28;20043;-82
2021/09/17 11:03:46;;;;;;;4.28;0.80;;;23.10;95.80;;;;;;5082627;28;20039;-82
2021/09/17 11:06:26;;;;;;;4.72;0.60;;;22.90;96.30;;;;;;5079727;28;20064;-82
2021/09/17 11:09:07;;;;;;;4.20;0.50;;;22.90;96.70;;;;;;5083152;28;20066;-81
2021/09/17 11:11:40;;;;;;;0.80;0.50;;;22.90;96.30;;;;;;5079931;28;20130;-80
2021/09/17 11:14:17;;;;;;;2.17;0.90;;;22.80;96.70;;;;;;5081280;28;20236;-82
2021/09/17 11:16:46;;;;;;;0.85;0.40;;;22.60;96.80;;;;;;5079585;28;20437;-82
2021/09/17 11:19:17;;;;;;;2.25;0.50;;;22.50;97.50;;;;;;5077863;28;20220;-82
2021/09/17 11:21:49;;;;;;;1.17;0.45;;;22.30;98.20;;;;;;5074374;28;20391;-81
2021/09/17 11:24:15;;;;;;;1.33;0.32;;;22.00;98.90;;;;;;5079761;28;20082;-82
2021/09/17 11:26:43;;;;;;;1.77;0.40;;;21.80;99.50;;;;;;5082769;28;20553;-82
2021/09/17 11:29:15;;;;;;;0.93;0.50;;;21.70;99.90;;;;;;5079461;28;20036;-81
2021/09/17 11:31:49;;;;;;;9.57;2.00;;;21.70;99.90;;;;;;5076236;28;20409;-81
2021/09/17 11:34:16;;;;;;;1.48;0.50;;;21.80;99.90;;;;;;5077828;28;20625;-81
2021/09/17 11:36:52;;;;;;;2.53;0.47;;;21.90;99.90;;;;;;5086348;28;20818;-81
2021/09/17 11:39:24;;;;;;;3.28;0.60;;;21.90;99.70;;;;;;5081957;28;20047;-81
2021/09/17 11:41:56;;;;;;;0.90;0.52;;;21.90;98.90;;;;;;5081266;28;20058;-82
2021/09/17 11:44:48;;;;;;;0.57;0.45;;;21.80;99.00;;;;;;5087334;28;20046;-82
2021/09/17 11:47:14;;;;;;;0.93;0.50;;;21.90;98.40;;;;;;5082091;28;20397;-81
2021/09/17 11:49:42;;;;;;;0.68;0.50;;;21.90;98.20;;;;;;5088572;28;20663;-81
2021/09/17 11:52:13;;;;;;;0.70;0.40;;;21.90;98.20;;;;;;5081880;28;20519;-82
2021/09/17 11:54:40;;;;;;;8.02;0.40;;;21.90;98.00;;;;;;5085809;28;20047;-83
2021/09/17 11:57:11;;;;;;;1.75;0.77;;;21.90;98.10;;;;;;5083246;28;20039;-81
2021/09/17 11:59:46;;;;;;;0.63;0.40;;;21.90;97.90;;;;;;5085856;28;20040;-83
2021/09/17 12:02:17;;;;;;;0.30;0.30;;;22.00;97.60;;;;;;5081569;28;20047;-82
2021/09/17 12:04:51;;;;;;;1.08;0.30;;;22.10;97.10;;;;;;5083057;28;20162;-81
2021/09/17 12:07:18;;;;;;;1.95;0.40;;;22.10;97.10;;;;;;5083938;28;20032;-81
2021/09/17 12:09:44;;;;;;;1.48;0.30;;;22.10;96.90;;;;;;5078727;28;20040;-81
2021/09/17 12:12:11;;;;;;;1.27;0.40;;;22.20;97.40;;;;;;5081052;28;20045;-81
2021/09/17 12:14:54;;;;;;;1.20;0.52;;;22.40;96.90;;;;;;5080722;28;20052;-82
2021/09/17 12:17:21;;;;;;;2.92;0.30;;;22.60;96.00;;;;;;5087075;28;20043;-81
2021/09/17 12:20:07;;;;;;;0.35;0.30;;;22.60;95.60;;;;;;5083418;28;20044;-82
2021/09/17 12:22:37;;;;;;;2.47;0.40;;;22.80;95.50;;;;;;5087753;28;20044;-82
2021/09/17 12:25:09;;;;;;;0.88;0.40;;;23.10;95.60;;;;;;5081786;28;20059;-82
2021/09/17 12:27:36;;;;;;;4.20;0.35;;;23.40;94.40;;;;;;5087800;28;20793;-81
2021/09/17 12:30:12;;;;;;;2.20;0.40;;;23.40;93.70;;;;;;5083383;28;20489;-81
2021/09/17 12:32:40;;;;;;;1.70;0.32;;;23.40;93.60;;;;;;5084654;28;20409;-80
2021/09/17 12:35:10;;;;;;;4.20;0.40;;;23.30;93.80;;;;;;5085723;28;20491;-81
2021/09/17 12:37:37;;;;;;;0.50;0.30;;;23.00;93.80;;;;;;5087786;28;20036;-82
2021/09/17 12:40:18;;;;;;;0.90;0.30;;;22.80;94.40;;;;;;5078205;28;20040;-80